Time;durP1;ratioP1;P1;durP2;ratioP2;P2;SDS_P1;SDS_P2;PMS_P1;PMS_P2;Temp;Humidity;BMP_temperature;BMP_pressure;BME280_temperature;BME280_humidity;BME280_pressure;Samples;Min_cycle;Max_cycle;Signal;HPM_P1;HPM_P2
2022/12/18 00:01:18;;;;;;;47.20;23.52;;;;;;;;;;4973142;28;20034;-77
2022/12/18 00:03:44;;;;;;;48.95;24.77;;;;;;;;;;4975099;28;20419;-77
2022/12/18 00:06:11;;;;;;;49.95;25.10;;;;;;;;;;4956625;28;20034;-76
2022/12/18 00:08:40;;;;;;;49.42;23.13;;;;;;;;;;4953809;28;20086;-77
2022/12/18 00:11:08;;;;;;;51.20;23.15;;;;;;;;;;4956182;28;20123;-77
2022/12/18 00:13:35;;;;;;;49.50;22.83;;;;;;;;;;4969729;28;20469;-76
2022/12/18 00:16:14;;;;;;;52.03;24.52;;;;;;;;;;4974863;28;20037;-75
2022/12/18 00:18:40;;;;;;;54.10;25.10;;;;;;;;;;4995172;28;20138;-79
2022/12/18 00:21:07;;;;;;;48.38;24.75;;;;;;;;;;4977109;28;20035;-77
2022/12/18 00:23:34;;;;;;;49.00;23.77;;;;;;;;;;4955664;28;20090;-77
2022/12/18 00:26:06;;;;;;;49.72;23.23;;;;;;;;;;4958103;28;20041;-76
2022/12/18 00:28:32;;;;;;;45.05;23.70;;;;;;;;;;4967046;28;20078;-77
2022/12/18 00:31:06;;;;;;;54.17;24.30;;;;;;;;;;4966306;28;20041;-77
2022/12/18 00:33:32;;;;;;;48.22;22.52;;;;;;;;;;4989414;28;20496;-76
2022/12/18 00:36:02;;;;;;;49.65;23.73;;;;;;;;;;4973546;28;20129;-77
2022/12/18 00:38:28;;;;;;;50.65;24.05;;;;;;;;;;4996453;28;20520;-77
2022/12/18 00:40:54;;;;;;;44.75;21.52;;;;;;;;;;4969658;28;20027;-78
2022/12/18 00:43:26;;;;;;;48.15;21.85;;;;;;;;;;4978024;28;20034;-78
2022/12/18 00:45:52;;;;;;;50.97;24.90;;;;;;;;;;4988185;28;20035;-76
2022/12/18 00:48:18;;;;;;;43.63;21.88;;;;;;;;;;4984624;28;20043;-77
2022/12/18 00:50:44;;;;;;;46.22;21.52;;;;;;;;;;4970596;28;20196;-75
2022/12/18 00:53:10;;;;;;;41.92;20.77;;;;;;;;;;4992201;28;20129;-76
2022/12/18 00:55:40;;;;;;;48.63;23.33;;;;;;;;;;4959847;28;20094;-78
2022/12/18 00:58:08;;;;;;;42.83;20.70;;;;;;;;;;4990479;28;20022;-76
2022/12/18 01:00:34;;;;;;;45.20;21.85;;;;;;;;;;4982222;28;20117;-76
2022/12/18 01:03:00;;;;;;;51.95;22.65;;;;;;;;;;4970257;28;20470;-76
2022/12/18 01:05:27;;;;;;;47.30;20.98;;;;;;;;;;4965535;28;20118;-77
2022/12/18 01:07:55;;;;;;;52.40;21.95;;;;;;;;;;4992170;28;20019;-78
2022/12/18 01:10:21;;;;;;;42.88;20.80;;;;;;;;;;4991986;28;20027;-80
2022/12/18 01:12:50;;;;;;;43.67;21.58;;;;;;;;;;4988043;28;20086;-76
2022/12/18 01:15:16;;;;;;;40.75;19.83;;;;;;;;;;4984690;28;20099;-76
2022/12/18 01:17:43;;;;;;;43.70;19.90;;;;;;;;;;4982742;28;20038;-80
2022/12/18 01:20:09;;;;;;;41.30;21.20;;;;;;;;;;4975632;28;20177;-75
2022/12/18 01:22:36;;;;;;;43.28;20.00;;;;;;;;;;4986727;28;20038;-77
2022/12/18 01:25:02;;;;;;;42.15;20.50;;;;;;;;;;4990847;28;20035;-76
2022/12/18 01:27:31;;;;;;;50.88;22.83;;;;;;;;;;4981524;28;20031;-77
2022/12/18 01:29:57;;;;;;;41.95;21.40;;;;;;;;;;4988147;28;20082;-75
2022/12/18 01:32:23;;;;;;;45.80;20.05;;;;;;;;;;4996110;28;20889;-77
2022/12/18 01:34:52;;;;;;;43.22;18.73;;;;;;;;;;4967094;28;20031;-76
2022/12/18 01:37:18;;;;;;;47.40;21.25;;;;;;;;;;4975491;28;20149;-75
2022/12/18 01:39:44;;;;;;;41.90;21.10;;;;;;;;;;4961512;28;20035;-76
2022/12/18 01:42:14;;;;;;;42.28;19.58;;;;;;;;;;4975697;28;20054;-75
2022/12/18 01:44:52;;;;;;;39.40;19.40;;;;;;;;;;4976551;28;20240;-76
2022/12/18 01:47:28;;;;;;;43.13;20.08;;;;;;;;;;4965707;28;20354;-76
2022/12/18 01:49:58;;;;;;;48.92;21.52;;;;;;;;;;4976649;28;20555;-76
2022/12/18 01:52:25;;;;;;;41.95;17.67;;;;;;;;;;4971820;28;20694;-76
2022/12/18 01:54:52;;;;;;;41.60;20.02;;;;;;;;;;4970462;28;20034;-76
2022/12/18 01:57:20;;;;;;;42.85;18.90;;;;;;;;;;4997562;28;20073;-76
2022/12/18 01:59:48;;;;;;;39.58;18.60;;;;;;;;;;4963313;28;20038;-76
2022/12/18 02:02:15;;;;;;;44.90;19.63;;;;;;;;;;4975371;28;20053;-76
2022/12/18 02:04:44;;;;;;;41.22;18.98;;;;;;;;;;4992044;28;20102;-77
2022/12/18 02:07:20;;;;;;;42.15;19.58;;;;;;;;;;4963726;28;20117;-76
2022/12/18 02:09:51;;;;;;;39.20;18.40;;;;;;;;;;4978486;28;20109;-77
2022/12/18 02:12:20;;;;;;;45.25;22.80;;;;;;;;;;4970757;28;20026;-76
2022/12/18 02:15:05;;;;;;;34.75;17.08;;;;;;;;;;5003490;28;20014;-76
2022/12/18 02:17:37;;;;;;;37.08;17.75;;;;;;;;;;4976206;28;20031;-76
2022/12/18 02:20:08;;;;;;;37.30;17.83;;;;;;;;;;4975226;28;20034;-77
2022/12/18 02:22:41;;;;;;;39.25;17.58;;;;;;;;;;4998674;28;20023;-75
2022/12/18 02:25:25;;;;;;;37.47;16.52;;;;;;;;;;4979230;28;20097;-75
2022/12/18 02:27:53;;;;;;;41.65;18.50;;;;;;;;;;4970875;28;20031;-77
2022/12/18 02:30:19;;;;;;;45.38;19.08;;;;;;;;;;4952064;28;20118;-77
2022/12/18 02:32:51;;;;;;;38.60;18.13;;;;;;;;;;4962110;28;20027;-75
2022/12/18 02:35:21;;;;;;;38.47;18.50;;;;;;;;;;4959609;28;20038;-76
2022/12/18 02:38:08;;;;;;;31.10;12.93;;;;;;;;;;4968044;28;20038;-75
2022/12/18 02:40:36;;;;;;;37.97;16.80;;;;;;;;;;4965082;28;20023;-76
2022/12/18 02:43:16;;;;;;;36.58;17.98;;;;;;;;;;4962489;28;20122;-76
2022/12/18 02:45:50;;;;;;;25.83;13.93;;;;;;;;;;4956381;28;20042;-79
2022/12/18 02:48:17;;;;;;;35.90;17.02;;;;;;;;;;4966836;28;20023;-76
2022/12/18 02:50:54;;;;;;;41.10;19.48;;;;;;;;;;4961530;28;20027;-73
2022/12/18 02:53:26;;;;;;;38.28;18.10;;;;;;;;;;4987062;28;20031;-76
2022/12/18 02:55:59;;;;;;;41.53;17.88;;;;;;;;;;4954683;28;20039;-76
2022/12/18 02:58:25;;;;;;;43.20;18.45;;;;;;;;;;4958408;28;20023;-76
2022/12/18 03:00:51;;;;;;;37.20;17.58;;;;;;;;;;4970206;28;20035;-77
2022/12/18 03:03:22;;;;;;;46.10;20.92;;;;;;;;;;4963012;28;20123;-76
2022/12/18 03:05:59;;;;;;;50.33;22.98;;;;;;;;;;4963843;28;20024;-78
2022/12/18 03:08:28;;;;;;;43.50;19.27;;;;;;;;;;4996334;28;20054;-76
2022/12/18 03:10:58;;;;;;;37.17;18.58;;;;;;;;;;5004173;28;20094;-80
2022/12/18 03:13:28;;;;;;;42.13;18.98;;;;;;;;;;4991802;28;20023;-78
2022/12/18 03:15:58;;;;;;;36.05;16.60;;;;;;;;;;4995690;28;20039;-79
2022/12/18 03:18:29;;;;;;;38.35;17.33;;;;;;;;;;4997059;28;20034;-80
2022/12/18 03:20:56;;;;;;;30.05;13.93;;;;;;;;;;4984553;28;20043;-78
2022/12/18 03:23:25;;;;;;;35.85;16.08;;;;;;;;;;4993970;28;20014;-80
2022/12/18 03:25:53;;;;;;;37.60;18.23;;;;;;;;;;5014430;28;20023;-80
2022/12/18 03:28:20;;;;;;;40.83;17.02;;;;;;;;;;4986187;28;20164;-80
2022/12/18 03:30:48;;;;;;;38.20;16.27;;;;;;;;;;4990522;28;20027;-79
2022/12/18 03:33:20;;;;;;;36.17;15.38;;;;;;;;;;4980410;28;20102;-79
2022/12/18 03:35:47;;;;;;;32.00;15.45;;;;;;;;;;4996539;28;20019;-81
2022/12/18 03:38:13;;;;;;;35.50;15.27;;;;;;;;;;4973111;28;20028;-76
2022/12/18 03:40:53;;;;;;;37.83;16.20;;;;;;;;;;4978575;28;20034;-77
2022/12/18 03:43:24;;;;;;;37.50;15.85;;;;;;;;;;5002590;28;20031;-77
2022/12/18 03:45:58;;;;;;;35.17;16.00;;;;;;;;;;4972307;28;20028;-76
2022/12/18 03:48:37;;;;;;;32.72;15.27;;;;;;;;;;4987165;28;20015;-76
2022/12/18 03:51:08;;;;;;;35.80;15.10;;;;;;;;;;4971871;28;20022;-75
2022/12/18 03:53:39;;;;;;;36.33;14.57;;;;;;;;;;4987293;28;20063;-76
2022/12/18 03:56:09;;;;;;;31.50;13.88;;;;;;;;;;4969763;28;20500;-77
2022/12/18 03:58:36;;;;;;;34.33;15.05;;;;;;;;;;4994680;28;20482;-76
2022/12/18 04:01:03;;;;;;;29.80;13.88;;;;;;;;;;4980830;28;20162;-76
2022/12/18 04:03:30;;;;;;;29.58;12.75;;;;;;;;;;4977640;28;20028;-75
2022/12/18 04:05:58;;;;;;;31.85;15.02;;;;;;;;;;4987790;28;20050;-75
2022/12/18 04:08:26;;;;;;;35.95;14.68;;;;;;;;;;4963137;28;20125;-76
2022/12/18 04:10:55;;;;;;;28.48;13.25;;;;;;;;;;4982102;28;20044;-74
2022/12/18 04:13:22;;;;;;;30.48;14.18;;;;;;;;;;4969186;28;20034;-77
2022/12/18 04:15:48;;;;;;;28.45;13.15;;;;;;;;;;4976047;28;20066;-79
2022/12/18 04:18:14;;;;;;;32.92;13.88;;;;;;;;;;4974108;28;20027;-79
2022/12/18 04:20:40;;;;;;;27.83;14.07;;;;;;;;;;4979792;28;20034;-79
2022/12/18 04:23:06;;;;;;;29.58;13.15;;;;;;;;;;5014468;28;20061;-77
2022/12/18 04:25:33;;;;;;;24.60;13.05;;;;;;;;;;5014203;28;20026;-80
2022/12/18 04:28:01;;;;;;;25.30;12.18;;;;;;;;;;4979914;28;20007;-78
2022/12/18 04:30:30;;;;;;;30.00;14.82;;;;;;;;;;4990092;28;20058;-75
2022/12/18 04:32:58;;;;;;;31.85;15.15;;;;;;;;;;4987849;28;20038;-76
2022/12/18 04:35:27;;;;;;;29.17;13.15;;;;;;;;;;4996440;28;20034;-76
2022/12/18 04:37:53;;;;;;;32.30;13.68;;;;;;;;;;4979904;28;20082;-79
2022/12/18 04:40:22;;;;;;;24.52;12.38;;;;;;;;;;4993412;28;20031;-78
2022/12/18 04:42:48;;;;;;;29.50;12.88;;;;;;;;;;4988052;28;20073;-79
2022/12/18 04:45:14;;;;;;;32.03;12.95;;;;;;;;;;4978339;28;20066;-76
2022/12/18 04:47:40;;;;;;;25.55;12.45;;;;;;;;;;4985085;28;20027;-77
2022/12/18 04:50:06;;;;;;;27.67;12.63;;;;;;;;;;4981984;28;20033;-76
2022/12/18 04:52:32;;;;;;;28.20;12.65;;;;;;;;;;5007284;28;20035;-79
2022/12/18 04:54:58;;;;;;;29.25;12.70;;;;;;;;;;4989070;28;20022;-77
2022/12/18 04:57:24;;;;;;;26.50;11.85;;;;;;;;;;4997898;28;20027;-80
2022/12/18 04:59:53;;;;;;;26.38;10.50;;;;;;;;;;4997271;28;20082;-80
2022/12/18 05:02:19;;;;;;;26.33;11.07;;;;;;;;;;4984144;28;20011;-79
2022/12/18 05:04:45;;;;;;;27.67;11.48;;;;;;;;;;4978380;28;20034;-76
2022/12/18 05:07:11;;;;;;;23.88;10.05;;;;;;;;;;4978021;28;20065;-75
2022/12/18 05:09:37;;;;;;;23.85;11.32;;;;;;;;;;4988427;28;20031;-76
2022/12/18 05:12:04;;;;;;;25.83;11.18;;;;;;;;;;4971878;28;20106;-77
2022/12/18 05:14:30;;;;;;;23.33;11.10;;;;;;;;;;4982381;28;20067;-79
2022/12/18 05:16:56;;;;;;;23.25;10.73;;;;;;;;;;4969787;28;20047;-77
2022/12/18 05:19:22;;;;;;;21.92;11.02;;;;;;;;;;4970278;28;20519;-76
2022/12/18 05:21:48;;;;;;;22.48;11.18;;;;;;;;;;4956621;28;20126;-75
2022/12/18 05:24:14;;;;;;;25.02;11.05;;;;;;;;;;4957076;28;20029;-75
2022/12/18 05:26:43;;;;;;;24.52;10.80;;;;;;;;;;4974342;28;20106;-76
2022/12/18 05:29:12;;;;;;;22.65;10.27;;;;;;;;;;4961821;28;20414;-76
2022/12/18 05:31:38;;;;;;;20.42;10.32;;;;;;;;;;4987109;28;20031;-79
2022/12/18 05:34:06;;;;;;;22.05;10.32;;;;;;;;;;4998703;28;20023;-79
2022/12/18 05:36:32;;;;;;;22.60;11.00;;;;;;;;;;4991574;28;20026;-76
2022/12/18 05:38:59;;;;;;;25.95;10.75;;;;;;;;;;4988956;28;20045;-78
2022/12/18 05:41:25;;;;;;;24.08;10.90;;;;;;;;;;4994920;28;20022;-76
2022/12/18 05:43:51;;;;;;;26.23;11.20;;;;;;;;;;4982102;28;20034;-76
2022/12/18 05:46:20;;;;;;;23.27;10.15;;;;;;;;;;4970987;28;20027;-76
2022/12/18 05:48:46;;;;;;;21.70;10.18;;;;;;;;;;4963168;28;20014;-75
2022/12/18 05:51:14;;;;;;;22.65;11.23;;;;;;;;;;4975364;28;20039;-74
2022/12/18 05:53:44;;;;;;;23.60;10.82;;;;;;;;;;4974289;28;20445;-77
2022/12/18 05:56:20;;;;;;;25.80;10.27;;;;;;;;;;4977086;28;20112;-76
2022/12/18 05:58:47;;;;;;;23.10;11.00;;;;;;;;;;4966245;28;20030;-76
2022/12/18 06:01:17;;;;;;;23.37;10.40;;;;;;;;;;4971783;28;20039;-78
2022/12/18 06:03:48;;;;;;;22.13;9.98;;;;;;;;;;4973867;28;20030;-76
2022/12/18 06:06:14;;;;;;;;;;;;;;;;;;4974019;28;20020;-76
2022/12/18 06:08:40;;;;;;;21.02;10.75;;;;;;;;;;4964491;28;19910;-76
2022/12/18 06:11:06;;;;;;;26.70;10.25;;;;;;;;;;4976096;28;20038;-75
2022/12/18 06:13:32;;;;;;;27.38;11.25;;;;;;;;;;4959664;28;20067;-76
2022/12/18 06:15:58;;;;;;;25.83;10.50;;;;;;;;;;4971939;28;20027;-76
2022/12/18 06:18:24;;;;;;;25.37;11.13;;;;;;;;;;4965866;28;20378;-75
2022/12/18 06:20:57;;;;;;;20.73;10.40;;;;;;;;;;4963163;28;20030;-76
2022/12/18 06:23:23;;;;;;;24.00;10.40;;;;;;;;;;4958645;28;20027;-75
2022/12/18 06:25:49;;;;;;;20.63;10.35;;;;;;;;;;4970403;28;20106;-76
2022/12/18 06:28:18;;;;;;;18.00;9.93;;;;;;;;;;4967596;28;20463;-78
2022/12/18 06:30:45;;;;;;;19.38;10.35;;;;;;;;;;4963519;28;20026;-76
2022/12/18 06:33:11;;;;;;;21.35;10.68;;;;;;;;;;4977130;28;20059;-76
2022/12/18 06:35:37;;;;;;;25.40;11.43;;;;;;;;;;4969444;28;20031;-75
2022/12/18 06:38:03;;;;;;;22.93;10.83;;;;;;;;;;4987259;28;20038;-75
2022/12/18 06:40:29;;;;;;;19.48;10.30;;;;;;;;;;4965971;28;20081;-76
2022/12/18 06:42:56;;;;;;;22.48;10.57;;;;;;;;;;4963408;28;20034;-75
2022/12/18 06:45:22;;;;;;;23.55;10.50;;;;;;;;;;4973280;28;20532;-75
2022/12/18 06:47:48;;;;;;;22.23;9.90;;;;;;;;;;4956148;28;20346;-75
2022/12/18 06:50:14;;;;;;;24.35;9.52;;;;;;;;;;4968394;28;20070;-75
2022/12/18 06:52:49;;;;;;;24.50;10.48;;;;;;;;;;4961896;28;20157;-77
2022/12/18 06:55:15;;;;;;;23.45;10.32;;;;;;;;;;4961748;28;20032;-76
2022/12/18 06:57:41;;;;;;;28.83;12.15;;;;;;;;;;4969186;28;20026;-76
2022/12/18 07:00:07;;;;;;;21.52;10.85;;;;;;;;;;4973460;28;20027;-76
2022/12/18 07:02:33;;;;;;;22.03;10.17;;;;;;;;;;4967653;28;20019;-76
2022/12/18 07:04:59;;;;;;;23.98;10.60;;;;;;;;;;4953703;28;20083;-75
2022/12/18 07:07:25;;;;;;;24.33;10.80;;;;;;;;;;4951628;28;20027;-76
2022/12/18 07:09:54;;;;;;;21.58;10.93;;;;;;;;;;4971021;28;20034;-77
2022/12/18 07:12:20;;;;;;;24.20;11.47;;;;;;;;;;4967383;28;20027;-76
2022/12/18 07:14:46;;;;;;;25.52;10.65;;;;;;;;;;4961458;28;20082;-73
2022/12/18 07:17:12;;;;;;;27.60;11.47;;;;;;;;;;4978865;28;20035;-76
2022/12/18 07:19:38;;;;;;;21.75;11.30;;;;;;;;;;4985649;28;20038;-75
2022/12/18 07:22:04;;;;;;;25.80;11.10;;;;;;;;;;4973625;28;20393;-76
2022/12/18 07:24:35;;;;;;;28.15;10.82;;;;;;;;;;4965749;28;20130;-76
2022/12/18 07:27:01;;;;;;;22.08;10.73;;;;;;;;;;4961998;28;20511;-75
2022/12/18 07:29:27;;;;;;;26.15;11.68;;;;;;;;;;4972066;28;20031;-77
2022/12/18 07:31:53;;;;;;;19.65;9.25;;;;;;;;;;4970410;28;20038;-76
2022/12/18 07:34:19;;;;;;;23.95;10.50;;;;;;;;;;4957459;28;20027;-76
2022/12/18 07:36:45;;;;;;;25.83;10.98;;;;;;;;;;4987264;28;20046;-76
2022/12/18 07:39:11;;;;;;;24.20;11.88;;;;;;;;;;4959080;28;20032;-76
2022/12/18 07:41:37;;;;;;;25.75;11.45;;;;;;;;;;4967256;28;20027;-75
2022/12/18 07:44:03;;;;;;;21.02;10.18;;;;;;;;;;4971659;28;20068;-75
2022/12/18 07:46:29;;;;;;;19.15;10.70;;;;;;;;;;4972111;28;20646;-76
2022/12/18 07:48:55;;;;;;;21.73;11.13;;;;;;;;;;4975140;28;20031;-76
2022/12/18 07:51:21;;;;;;;23.23;11.75;;;;;;;;;;4961820;28;20524;-75
2022/12/18 07:53:48;;;;;;;24.83;11.80;;;;;;;;;;4971843;28;20149;-75
2022/12/18 07:56:14;;;;;;;24.58;10.90;;;;;;;;;;4961110;28;20034;-77
2022/12/18 07:58:40;;;;;;;24.98;13.43;;;;;;;;;;4974541;28;20481;-76
2022/12/18 08:01:07;;;;;;;28.75;11.85;;;;;;;;;;4965337;28;20102;-76
2022/12/18 08:03:33;;;;;;;28.63;12.45;;;;;;;;;;4971154;28;20038;-75
2022/12/18 08:06:01;;;;;;;31.77;12.57;;;;;;;;;;4959305;28;20034;-76
2022/12/18 08:08:27;;;;;;;27.75;12.25;;;;;;;;;;4968567;28;20023;-76
2022/12/18 08:10:53;;;;;;;28.65;12.60;;;;;;;;;;4965174;28;20031;-77
2022/12/18 08:13:19;;;;;;;31.92;13.52;;;;;;;;;;4960742;28;20038;-78
2022/12/18 08:15:45;;;;;;;37.30;14.90;;;;;;;;;;4971218;28;20030;-77
2022/12/18 08:18:11;;;;;;;29.15;14.05;;;;;;;;;;4985244;28;20410;-77
2022/12/18 08:20:37;;;;;;;30.33;13.13;;;;;;;;;;4963560;28;20027;-76
2022/12/18 08:23:03;;;;;;;29.20;14.95;;;;;;;;;;4975229;28;20027;-76
2022/12/18 08:25:29;;;;;;;26.20;14.20;;;;;;;;;;4960760;28;20398;-76
2022/12/18 08:27:56;;;;;;;29.08;12.68;;;;;;;;;;4957265;28;20034;-79
2022/12/18 08:30:27;;;;;;;28.92;13.75;;;;;;;;;;4991865;28;20118;-77
2022/12/18 08:33:04;;;;;;;31.17;15.43;;;;;;;;;;4970383;28;20050;-78
2022/12/18 08:35:30;;;;;;;28.63;14.15;;;;;;;;;;4974710;28;20037;-79
2022/12/18 08:37:56;;;;;;;31.05;14.30;;;;;;;;;;4975770;28;20035;-78
2022/12/18 08:40:25;;;;;;;32.85;15.57;;;;;;;;;;4963855;28;20033;-78
2022/12/18 08:45:35;;;;;;;33.95;17.15;;;;;;;;;;4977380;28;20098;-79
2022/12/18 08:48:04;;;;;;;33.38;16.77;;;;;;;;;;4960019;28;20474;-79
2022/12/18 08:50:30;;;;;;;33.63;16.05;;;;;;;;;;4977636;28;20055;-79
2022/12/18 08:52:56;;;;;;;32.00;15.73;;;;;;;;;;4981727;28;20035;-75
2022/12/18 08:55:22;;;;;;;38.75;17.27;;;;;;;;;;4969378;28;20022;-77
2022/12/18 08:57:49;;;;;;;34.05;16.55;;;;;;;;;;4987151;28;20038;-76
2022/12/18 09:00:23;;;;;;;32.75;16.88;;;;;;;;;;4987155;28;20030;-75
2022/12/18 09:02:49;;;;;;;34.63;18.13;;;;;;;;;;4977315;28;20077;-75
2022/12/18 09:05:15;;;;;;;38.78;21.23;;;;;;;;;;4953980;28;20027;-77
2022/12/18 09:07:41;;;;;;;39.28;19.85;;;;;;;;;;4969665;28;20066;-77
2022/12/18 09:10:07;;;;;;;31.63;16.02;;;;;;;;;;4970445;28;20097;-77
2022/12/18 09:12:33;;;;;;;37.38;16.13;;;;;;;;;;4961895;28;20035;-75
2022/12/18 09:14:59;;;;;;;33.67;15.63;;;;;;;;;;4963519;28;20038;-77
2022/12/18 09:17:26;;;;;;;38.58;16.50;;;;;;;;;;4967127;28;20858;-76
2022/12/18 09:19:52;;;;;;;35.08;16.08;;;;;;;;;;4972296;28;20043;-76
2022/12/18 09:22:18;;;;;;;34.38;16.23;;;;;;;;;;4961368;28;20018;-77
2022/12/18 09:24:44;;;;;;;30.50;14.85;;;;;;;;;;4975158;28;20029;-77
2022/12/18 09:27:10;;;;;;;34.97;17.65;;;;;;;;;;4961718;28;20031;-77
2022/12/18 09:29:36;;;;;;;35.83;16.15;;;;;;;;;;4971349;28;20034;-77
2022/12/18 09:32:02;;;;;;;33.45;16.25;;;;;;;;;;4970360;28;20065;-77
2022/12/18 09:34:28;;;;;;;34.50;16.63;;;;;;;;;;4960598;28;20031;-77
2022/12/18 09:36:54;;;;;;;36.95;17.67;;;;;;;;;;4963606;28;20027;-76
2022/12/18 09:39:20;;;;;;;37.70;17.20;;;;;;;;;;4966855;28;20031;-76
2022/12/18 09:41:49;;;;;;;40.05;17.40;;;;;;;;;;4956910;28;20398;-77
2022/12/18 09:44:27;;;;;;;38.85;17.27;;;;;;;;;;4973113;28;20393;-77
2022/12/18 09:46:56;;;;;;;39.03;17.85;;;;;;;;;;4963529;28;20038;-77
2022/12/18 09:49:24;;;;;;;37.25;17.08;;;;;;;;;;4977001;28;20029;-74
2022/12/18 09:51:53;;;;;;;37.28;17.83;;;;;;;;;;4976481;28;20030;-76
2022/12/18 09:54:22;;;;;;;41.67;19.23;;;;;;;;;;4973615;28;20489;-76
2022/12/18 09:56:48;;;;;;;36.40;18.35;;;;;;;;;;4964071;28;20023;-75
2022/12/18 09:59:24;;;;;;;42.67;19.45;;;;;;;;;;4966195;28;20065;-75
2022/12/18 10:01:50;;;;;;;43.05;20.45;;;;;;;;;;4972185;28;20069;-75
2022/12/18 10:04:16;;;;;;;37.67;19.13;;;;;;;;;;4975773;28;20086;-77
2022/12/18 10:06:54;;;;;;;48.55;20.60;;;;;;;;;;4984457;28;20070;-78
2022/12/18 10:09:23;;;;;;;42.42;20.75;;;;;;;;;;4981366;28;20027;-75
2022/12/18 10:11:52;;;;;;;43.45;20.20;;;;;;;;;;4972468;28;20027;-75
2022/12/18 10:14:21;;;;;;;42.67;20.10;;;;;;;;;;4982213;28;20023;-76
2022/12/18 10:17:03;;;;;;;46.38;22.15;;;;;;;;;;4962831;28;20023;-76
2022/12/18 10:19:49;;;;;;;48.97;21.95;;;;;;;;;;4972853;28;20141;-76
2022/12/18 10:22:26;;;;;;;45.05;22.38;;;;;;;;;;4957852;28;20375;-76
2022/12/18 10:24:56;;;;;;;45.20;21.85;;;;;;;;;;4972745;28;20481;-75
2022/12/18 10:27:26;;;;;;;52.13;22.00;;;;;;;;;;4973197;28;20031;-76
2022/12/18 10:29:52;;;;;;;45.03;21.77;;;;;;;;;;4971008;28;20489;-77
2022/12/18 10:32:20;;;;;;;46.22;22.00;;;;;;;;;;4968015;28;20445;-77
2022/12/18 10:34:50;;;;;;;47.60;22.23;;;;;;;;;;4962330;28;20062;-74
2022/12/18 10:37:18;;;;;;;45.00;22.02;;;;;;;;;;4971878;28;20476;-79
2022/12/18 10:39:44;;;;;;;49.28;23.50;;;;;;;;;;4972178;28;20061;-76
2022/12/18 10:42:17;;;;;;;45.80;21.75;;;;;;;;;;4957124;28;20026;-77
2022/12/18 10:44:44;;;;;;;47.53;21.10;;;;;;;;;;4972947;28;20070;-76
2022/12/18 10:47:13;;;;;;;48.08;22.60;;;;;;;;;;4981572;28;20066;-76
2022/12/18 10:49:42;;;;;;;42.75;21.33;;;;;;;;;;4961511;28;20034;-78
2022/12/18 10:52:19;;;;;;;42.38;20.33;;;;;;;;;;4965691;28;20073;-75
2022/12/18 10:54:53;;;;;;;43.85;20.77;;;;;;;;;;4968953;28;20035;-79
2022/12/18 10:57:25;;;;;;;42.83;18.52;;;;;;;;;;4965975;28;20062;-76
2022/12/18 10:59:52;;;;;;;44.50;21.38;;;;;;;;;;4955776;28;20046;-77
2022/12/18 11:02:35;;;;;;;47.60;21.38;;;;;;;;;;4953007;28;20058;-79
2022/12/18 11:05:01;;;;;;;47.00;21.17;;;;;;;;;;4963357;28;20085;-79
2022/12/18 11:07:47;;;;;;;47.70;20.00;;;;;;;;;;4971767;28;20081;-79
2022/12/18 11:10:17;;;;;;;45.53;22.60;;;;;;;;;;4982720;28;20501;-76
2022/12/18 11:12:43;;;;;;;47.60;20.20;;;;;;;;;;4961742;28;20030;-76
2022/12/18 11:15:15;;;;;;;46.28;21.67;;;;;;;;;;4968751;28;20758;-75
2022/12/18 11:17:42;;;;;;;49.67;21.05;;;;;;;;;;4953252;28;20501;-77
2022/12/18 11:20:28;;;;;;;53.05;22.10;;;;;;;;;;4956365;28;20608;-77
2022/12/18 11:22:56;;;;;;;48.42;21.35;;;;;;;;;;4972810;28;20039;-77
2022/12/18 11:25:22;;;;;;;50.53;22.50;;;;;;;;;;4960197;28;20042;-79
2022/12/18 11:27:59;;;;;;;52.38;23.38;;;;;;;;;;4972122;28;20037;-75
2022/12/18 11:30:30;;;;;;;50.00;22.98;;;;;;;;;;4984938;28;20065;-75
2022/12/18 11:33:05;;;;;;;52.95;21.75;;;;;;;;;;4967039;28;20418;-78
2022/12/18 11:35:50;;;;;;;45.47;22.70;;;;;;;;;;4975981;28;20248;-76
2022/12/18 11:38:25;;;;;;;50.35;23.90;;;;;;;;;;4960865;28;20054;-76
2022/12/18 11:40:56;;;;;;;47.53;21.58;;;;;;;;;;4967909;28;20055;-77
2022/12/18 11:43:26;;;;;;;45.85;21.40;;;;;;;;;;4970738;28;20030;-76
2022/12/18 11:45:55;;;;;;;44.33;19.83;;;;;;;;;;4975526;28;20031;-75
2022/12/18 11:48:33;;;;;;;39.83;18.73;;;;;;;;;;4990105;28;20571;-75
2022/12/18 11:51:00;;;;;;;37.53;19.42;;;;;;;;;;4964698;28;20034;-79
2022/12/18 11:53:27;;;;;;;41.28;19.52;;;;;;;;;;4968283;28;20114;-77
2022/12/18 11:55:59;;;;;;;49.00;21.90;;;;;;;;;;4975004;28;20539;-75
2022/12/18 11:58:28;;;;;;;45.90;21.10;;;;;;;;;;4977087;28;20374;-75
2022/12/18 12:01:03;;;;;;;43.53;21.00;;;;;;;;;;4973117;28;20478;-75
2022/12/18 12:03:35;;;;;;;53.33;21.95;;;;;;;;;;4960228;28;20126;-74
2022/12/18 12:06:14;;;;;;;42.58;18.58;;;;;;;;;;4958560;28;20105;-75
2022/12/18 12:08:43;;;;;;;43.72;19.35;;;;;;;;;;4974228;28;20023;-81
2022/12/18 12:11:14;;;;;;;44.22;19.50;;;;;;;;;;4977829;28;20031;-78
2022/12/18 12:14:03;;;;;;;42.05;19.48;;;;;;;;;;4975884;28;20088;-79
2022/12/18 12:16:31;;;;;;;45.60;19.20;;;;;;;;;;4989457;28;20035;-78
2022/12/18 12:19:06;;;;;;;47.05;21.17;;;;;;;;;;4973736;28;20508;-75
2022/12/18 12:21:35;;;;;;;50.38;19.60;;;;;;;;;;4963892;28;20035;-75
2022/12/18 12:24:20;;;;;;;37.60;18.65;;;;;;;;;;4969063;28;20038;-75
2022/12/18 12:27:09;;;;;;;46.20;20.05;;;;;;;;;;4961155;28;20058;-75
2022/12/18 12:29:35;;;;;;;41.35;18.60;;;;;;;;;;4970402;28;20043;-76
2022/12/18 12:32:07;;;;;;;41.70;20.13;;;;;;;;;;4959657;28;20086;-74
2022/12/18 12:34:45;;;;;;;44.92;20.60;;;;;;;;;;4973646;28;20375;-75
2022/12/18 12:37:11;;;;;;;43.05;19.73;;;;;;;;;;4965379;28;20035;-73
2022/12/18 12:39:38;;;;;;;38.65;18.67;;;;;;;;;;4966389;28;20034;-76
2022/12/18 12:44:54;;;;;;;48.38;21.63;;;;;;;;;;4972658;28;20044;-74
2022/12/18 12:47:23;;;;;;;43.28;18.70;;;;;;;;;;4963094;28;20122;-73
2022/12/18 12:49:49;;;;;;;49.10;20.52;;;;;;;;;;4968681;28;20065;-74
2022/12/18 12:52:17;;;;;;;46.72;19.00;;;;;;;;;;4970305;28;20031;-75
2022/12/18 12:54:44;;;;;;;47.05;20.98;;;;;;;;;;4955848;28;20039;-74
2022/12/18 12:57:16;;;;;;;47.05;19.35;;;;;;;;;;4962199;28;20458;-74
2022/12/18 12:59:53;;;;;;;41.35;20.25;;;;;;;;;;4967821;28;20027;-74
2022/12/18 13:02:19;;;;;;;47.05;19.90;;;;;;;;;;4971414;28;20402;-74
2022/12/18 13:05:01;;;;;;;46.38;19.63;;;;;;;;;;4968066;28;20533;-74
2022/12/18 13:07:30;;;;;;;38.78;19.08;;;;;;;;;;4967198;28;20027;-74
2022/12/18 13:10:25;;;;;;;42.00;17.95;;;;;;;;;;4959282;28;20518;-77
2022/12/18 13:12:58;;;;;;;43.22;18.92;;;;;;;;;;4958972;28;20055;-74
2022/12/18 13:15:27;;;;;;;41.35;18.17;;;;;;;;;;4974474;28;20409;-76
2022/12/18 13:18:08;;;;;;;42.45;19.90;;;;;;;;;;4971391;28;20106;-75
2022/12/18 13:20:37;;;;;;;43.95;19.85;;;;;;;;;;4960927;28;20081;-73
2022/12/18 13:23:22;;;;;;;42.13;19.05;;;;;;;;;;4964075;28;20074;-73
2022/12/18 13:25:48;;;;;;;45.00;18.58;;;;;;;;;;4969630;28;20062;-74
2022/12/18 13:28:15;;;;;;;46.72;20.10;;;;;;;;;;4956749;28;20034;-73
2022/12/18 13:30:42;;;;;;;44.65;20.67;;;;;;;;;;4987262;28;20073;-76
2022/12/18 13:33:16;;;;;;;45.80;19.80;;;;;;;;;;4965397;28;20035;-74
2022/12/18 13:35:52;;;;;;;44.75;20.30;;;;;;;;;;4965593;28;20130;-74
2022/12/18 13:38:21;;;;;;;40.67;19.02;;;;;;;;;;4985691;28;20042;-76
2022/12/18 13:40:47;;;;;;;40.15;18.35;;;;;;;;;;4971069;28;20501;-74
2022/12/18 13:43:19;;;;;;;43.53;18.70;;;;;;;;;;4962069;28;20027;-76
2022/12/18 13:46:09;;;;;;;42.33;19.77;;;;;;;;;;4965099;28;20027;-75
2022/12/18 13:48:38;;;;;;;47.33;19.85;;;;;;;;;;4957564;28;20478;-75
2022/12/18 13:51:09;;;;;;;50.85;20.55;;;;;;;;;;4961130;28;20023;-76
2022/12/18 13:53:47;;;;;;;44.20;20.17;;;;;;;;;;4967383;28;20041;-78
2022/12/18 13:56:21;;;;;;;50.38;21.77;;;;;;;;;;4969192;28;20113;-75
2022/12/18 13:59:03;;;;;;;45.70;19.95;;;;;;;;;;4966142;28;20034;-79
2022/12/18 14:01:29;;;;;;;48.60;21.30;;;;;;;;;;4954650;28;20505;-76
2022/12/18 14:06:56;;;;;;;46.85;19.85;;;;;;;;;;1260555;26;20420;-77
2022/12/18 14:09:26;;;;;;;42.15;20.17;;;;;;;;;;5011210;28;20052;-77
2022/12/18 14:12:56;;;;;;;43.58;19.42;;;;;;;;;;4995520;28;20030;-76
2022/12/18 14:14:41;;;;;;;42.85;19.92;;;;;;;;;;4971652;28;20043;-74
2022/12/18 14:17:10;;;;;;;43.38;18.20;;;;;;;;;;4979554;28;20030;-73
2022/12/18 14:19:36;;;;;;;42.50;18.38;;;;;;;;;;4993753;28;20033;-73
2022/12/18 14:22:02;;;;;;;46.78;19.98;;;;;;;;;;4991555;28;20516;-73
2022/12/18 14:24:29;;;;;;;42.60;20.70;;;;;;;;;;4991947;28;20026;-73
2022/12/18 14:27:12;;;;;;;39.30;18.67;;;;;;;;;;4993311;28;20535;-74
2022/12/18 14:29:44;;;;;;;40.92;18.65;;;;;;;;;;4992821;28;20523;-75
2022/12/18 14:32:20;;;;;;;43.88;18.83;;;;;;;;;;4993064;28;20496;-75
2022/12/18 14:34:50;;;;;;;44.42;18.00;;;;;;;;;;4993602;28;20038;-73
2022/12/18 14:37:18;;;;;;;31.13;14.88;;;;;;;;;;4993140;28;20069;-71
2022/12/18 14:39:54;;;;;;;47.13;19.13;;;;;;;;;;4993631;28;20037;-75